Time;durP1;ratioP1;P1;durP2;ratioP2;P2;SDS_P1;SDS_P2;PMS_P1;PMS_P2;Temp;Humidity;BMP_temperature;BMP_pressure;BME280_temperature;BME280_humidity;BME280_pressure;Samples;Min_cycle;Max_cycle;Signal;HPM_P1;HPM_P2
2021/10/18 00:01:35;;;;;;;11.85;8.73;;;10.60;99.90;;;;;;5015377;28;20068;-67
2021/10/18 00:04:01;;;;;;;12.00;8.02;;;10.50;99.90;;;;;;5026031;28;20394;-67
2021/10/18 00:06:27;;;;;;;11.93;7.95;;;10.50;99.90;;;;;;5011217;28;20482;-67
2021/10/18 00:08:53;;;;;;;12.45;8.25;;;10.50;99.90;;;;;;5022464;28;20457;-67
2021/10/18 00:11:19;;;;;;;12.98;9.07;;;10.40;99.90;;;;;;5007368;28;20041;-67
2021/10/18 00:13:45;;;;;;;13.50;8.30;;;10.40;99.90;;;;;;5018544;28;20045;-67
2021/10/18 00:16:11;;;;;;;14.32;9.15;;;10.40;99.90;;;;;;5024920;28;20037;-67
2021/10/18 00:18:37;;;;;;;14.45;8.38;;;10.40;99.90;;;;;;5020853;28;20414;-67
2021/10/18 00:21:03;;;;;;;12.65;8.82;;;10.40;99.90;;;;;;5021628;28;20044;-67
2021/10/18 00:23:28;;;;;;;14.80;9.57;;;10.40;99.90;;;;;;5015528;28;20049;-67
2021/10/18 00:25:54;;;;;;;11.60;8.70;;;10.40;99.90;;;;;;5016184;28;20050;-67
2021/10/18 00:28:21;;;;;;;13.00;9.05;;;10.40;99.90;;;;;;5016361;28;20040;-67
2021/10/18 00:30:47;;;;;;;13.77;9.50;;;10.40;99.90;;;;;;5026118;28;20025;-67
2021/10/18 00:33:12;;;;;;;11.10;8.40;;;10.40;99.90;;;;;;5011759;28;20033;-67
2021/10/18 00:35:38;;;;;;;12.35;9.27;;;10.40;99.90;;;;;;5027384;28;20068;-67
2021/10/18 00:38:04;;;;;;;15.23;9.95;;;10.40;99.90;;;;;;5020012;28;20037;-67
2021/10/18 00:40:29;;;;;;;11.95;9.23;;;10.40;99.90;;;;;;5022120;28;20054;-67
2021/10/18 00:42:55;;;;;;;13.73;9.38;;;10.40;99.90;;;;;;5021187;28;20047;-67
2021/10/18 00:45:21;;;;;;;12.32;9.38;;;10.40;99.90;;;;;;5026351;28;20045;-67
2021/10/18 00:47:47;;;;;;;12.70;9.68;;;10.40;99.90;;;;;;5015764;28;20038;-67
2021/10/18 00:50:14;;;;;;;12.70;9.05;;;10.40;99.90;;;;;;5021122;28;20087;-67
2021/10/18 00:52:40;;;;;;;14.10;9.55;;;10.40;99.90;;;;;;5017399;28;20037;-67
2021/10/18 00:55:07;;;;;;;14.02;10.48;;;10.40;99.90;;;;;;5013559;28;20537;-67
2021/10/18 00:57:34;;;;;;;11.00;9.68;;;10.40;99.90;;;;;;5018765;28;20046;-67
2021/10/18 01:00:00;;;;;;;15.57;9.63;;;10.40;99.90;;;;;;5017691;28;20044;-67
2021/10/18 01:02:26;;;;;;;14.93;9.45;;;10.40;99.90;;;;;;5014691;28;20033;-67
2021/10/18 01:04:52;;;;;;;12.05;9.95;;;10.40;99.90;;;;;;5011189;28;20095;-67
2021/10/18 01:07:18;;;;;;;12.68;9.73;;;10.40;99.90;;;;;;5023107;28;20060;-67
2021/10/18 01:09:44;;;;;;;12.70;10.43;;;10.40;99.90;;;;;;5012523;28;20501;-67
2021/10/18 01:12:10;;;;;;;14.63;9.85;;;10.40;99.90;;;;;;5017937;28;20045;-67
2021/10/18 01:14:36;;;;;;;16.05;10.55;;;10.40;99.90;;;;;;5010609;28;20041;-67
2021/10/18 01:17:02;;;;;;;15.80;10.02;;;10.30;99.90;;;;;;5018272;28;20129;-67
2021/10/18 01:19:28;;;;;;;14.70;11.43;;;10.40;99.90;;;;;;5016771;28;20139;-67
2021/10/18 01:22:01;;;;;;;15.77;10.55;;;10.40;99.90;;;;;;5022487;28;20064;-67
2021/10/18 01:24:28;;;;;;;13.93;10.80;;;10.40;99.90;;;;;;5014866;28;20100;-67
2021/10/18 01:26:54;;;;;;;15.48;11.00;;;10.40;99.90;;;;;;5018882;28;20037;-67
2021/10/18 01:29:19;;;;;;;13.82;10.52;;;10.40;99.90;;;;;;5020859;28;20359;-67
2021/10/18 01:31:45;;;;;;;11.98;9.90;;;10.40;99.90;;;;;;5016376;28;20033;-67
2021/10/18 01:34:11;;;;;;;13.43;10.00;;;10.40;99.90;;;;;;5015823;28;20084;-67
2021/10/18 01:36:37;;;;;;;15.05;10.18;;;10.40;99.90;;;;;;5013711;28;20041;-67
2021/10/18 01:39:03;;;;;;;12.32;9.93;;;10.40;99.90;;;;;;5023553;28;20068;-67
2021/10/18 01:41:29;;;;;;;15.48;11.75;;;10.40;99.90;;;;;;5016498;28;20100;-67
2021/10/18 01:43:54;;;;;;;16.10;10.75;;;10.40;99.90;;;;;;5021948;28;20038;-67
2021/10/18 01:46:20;;;;;;;13.30;10.50;;;10.30;99.90;;;;;;5015428;28;20130;-67
2021/10/18 01:48:46;;;;;;;15.52;10.80;;;10.30;99.90;;;;;;5014596;28;20635;-67
2021/10/18 01:51:12;;;;;;;14.95;10.90;;;10.30;99.90;;;;;;5018862;28;20045;-67
2021/10/18 01:53:38;;;;;;;16.13;11.35;;;10.30;99.90;;;;;;5023270;28;20532;-67
2021/10/18 01:56:05;;;;;;;13.20;9.82;;;10.20;99.90;;;;;;5016571;28;20060;-67
2021/10/18 01:58:32;;;;;;;15.20;11.52;;;10.20;99.90;;;;;;4996036;28;20045;-67
2021/10/18 02:00:59;;;;;;;15.15;10.43;;;10.20;99.90;;;;;;5021478;28;20049;-67
2021/10/18 02:03:25;;;;;;;15.60;10.95;;;10.10;99.90;;;;;;5021470;28;20532;-67
2021/10/18 02:05:51;;;;;;;16.48;11.35;;;10.00;99.90;;;;;;5021784;28;20168;-67
2021/10/18 02:08:16;;;;;;;19.08;12.07;;;9.90;99.90;;;;;;5013856;28;20034;-67
2021/10/18 02:10:42;;;;;;;13.68;11.18;;;9.90;99.90;;;;;;5019957;28;20047;-67
2021/10/18 02:13:08;;;;;;;14.85;10.95;;;9.80;99.90;;;;;;5028458;28;20045;-67
2021/10/18 02:15:34;;;;;;;16.83;11.60;;;9.70;99.90;;;;;;5018979;28;20037;-67
2021/10/18 02:17:59;;;;;;;14.88;11.65;;;9.70;99.90;;;;;;5014069;28;20042;-67
2021/10/18 02:20:25;;;;;;;15.27;11.00;;;9.60;99.90;;;;;;5021126;28;20030;-67
2021/10/18 02:22:51;;;;;;;16.48;11.80;;;9.50;99.90;;;;;;5010095;28;20033;-67
2021/10/18 02:25:16;;;;;;;13.98;11.23;;;9.40;99.90;;;;;;5022502;28;20349;-67
2021/10/18 02:27:43;;;;;;;13.48;11.13;;;9.40;99.90;;;;;;5014344;28;20053;-67
2021/10/18 02:30:10;;;;;;;14.27;11.57;;;9.20;99.90;;;;;;5017966;28;20045;-67
2021/10/18 02:32:36;;;;;;;16.13;11.05;;;9.20;99.90;;;;;;5011120;28;20033;-67
2021/10/18 02:35:03;;;;;;;17.17;12.00;;;9.10;99.90;;;;;;5020232;28;20052;-67
2021/10/18 02:37:29;;;;;;;23.05;13.35;;;9.00;99.90;;;;;;5017571;28;20415;-67
2021/10/18 02:39:54;;;;;;;18.67;11.85;;;8.90;99.90;;;;;;5016094;28;20037;-67
2021/10/18 02:42:20;;;;;;;15.38;12.20;;;8.90;99.90;;;;;;5021956;28;20489;-67
2021/10/18 02:44:46;;;;;;;14.93;12.43;;;8.90;99.90;;;;;;5010967;28;20355;-67
2021/10/18 02:47:11;;;;;;;14.23;11.60;;;8.80;99.90;;;;;;5014589;28;20041;-67
2021/10/18 02:49:37;;;;;;;16.27;11.65;;;8.70;99.90;;;;;;5014772;28;21126;-67
2021/10/18 02:52:03;;;;;;;20.17;13.55;;;8.70;99.90;;;;;;5022039;28;20553;-67
2021/10/18 02:54:29;;;;;;;16.13;12.95;;;8.50;99.90;;;;;;5012461;28;20140;-67
2021/10/18 02:56:55;;;;;;;16.35;13.45;;;8.60;99.90;;;;;;5015105;28;20124;-67
2021/10/18 02:59:20;;;;;;;17.83;12.27;;;8.50;99.90;;;;;;5018981;28;20042;-67
2021/10/18 03:01:46;;;;;;;14.98;12.93;;;8.50;99.90;;;;;;5025250;28;20069;-67
2021/10/18 03:04:12;;;;;;;19.60;13.00;;;8.50;99.90;;;;;;5013499;28;20390;-67
2021/10/18 03:06:38;;;;;;;17.77;13.73;;;8.50;99.90;;;;;;5023099;28;20029;-67
2021/10/18 03:09:04;;;;;;;17.70;14.00;;;8.40;99.90;;;;;;5016450;28;20042;-67
2021/10/18 03:11:30;;;;;;;21.38;13.93;;;8.50;99.90;;;;;;5014737;28;20042;-67
2021/10/18 03:13:56;;;;;;;15.55;13.40;;;8.40;99.90;;;;;;5009206;28;20168;-67
2021/10/18 03:16:21;;;;;;;17.00;13.55;;;8.40;99.90;;;;;;5018262;28;20041;-67
2021/10/18 03:18:47;;;;;;;18.80;13.90;;;8.40;99.90;;;;;;5011458;28;20116;-67
2021/10/18 03:21:13;;;;;;;17.83;13.70;;;8.40;99.90;;;;;;5019756;28;20080;-67
2021/10/18 03:23:39;;;;;;;19.10;14.18;;;8.40;99.90;;;;;;5024850;28;20506;-67
2021/10/18 03:26:05;;;;;;;20.30;14.02;;;8.30;99.90;;;;;;5012034;28;20042;-67
2021/10/18 03:28:30;;;;;;;23.00;15.07;;;8.40;99.90;;;;;;5019569;28;20385;-67
2021/10/18 03:30:56;;;;;;;19.10;13.95;;;8.40;99.90;;;;;;5012755;28;20025;-67
2021/10/18 03:33:22;;;;;;;22.48;15.77;;;8.40;99.90;;;;;;5024555;28;20056;-67
2021/10/18 03:35:49;;;;;;;19.42;14.88;;;8.50;99.90;;;;;;5015840;28;20103;-67
2021/10/18 03:38:15;;;;;;;23.60;15.93;;;8.40;99.90;;;;;;5022347;28;20404;-67
2021/10/18 03:40:41;;;;;;;19.50;14.60;;;8.50;99.90;;;;;;5016057;28;20485;-67
2021/10/18 03:43:07;;;;;;;18.90;14.52;;;8.50;99.90;;;;;;5026406;28;20341;-67
2021/10/18 03:45:32;;;;;;;15.85;14.25;;;8.60;99.90;;;;;;5017476;28;20051;-67
2021/10/18 03:47:59;;;;;;;18.63;14.57;;;8.70;99.90;;;;;;5018060;28;20030;-67
2021/10/18 03:50:25;;;;;;;21.38;16.08;;;8.70;99.90;;;;;;5020072;28;20049;-67
2021/10/18 03:52:50;;;;;;;18.73;15.50;;;8.80;99.90;;;;;;5024136;28;20486;-67
2021/10/18 03:55:16;;;;;;;21.08;16.05;;;8.80;99.90;;;;;;5017270;28;20046;-67
2021/10/18 03:57:42;;;;;;;18.00;15.15;;;8.80;99.90;;;;;;5022900;28;20064;-67
2021/10/18 04:00:08;;;;;;;19.30;15.35;;;8.80;99.90;;;;;;5022404;28;20106;-67
2021/10/18 04:02:34;;;;;;;19.08;14.95;;;8.80;99.90;;;;;;5019107;28;20041;-67
2021/10/18 04:05:00;;;;;;;16.30;14.55;;;8.80;99.90;;;;;;5025992;28;20045;-67
2021/10/18 04:07:25;;;;;;;20.17;15.68;;;8.90;99.90;;;;;;5017317;28;20045;-67
2021/10/18 04:09:51;;;;;;;20.80;15.07;;;8.90;99.90;;;;;;5023501;28;20086;-67
2021/10/18 04:12:17;;;;;;;19.65;14.25;;;8.90;99.90;;;;;;5020321;28;20038;-67
2021/10/18 04:14:43;;;;;;;17.90;13.90;;;8.90;99.90;;;;;;5024722;28;20033;-67
2021/10/18 04:17:08;;;;;;;15.75;14.10;;;8.90;99.90;;;;;;5016877;28;20117;-67
2021/10/18 04:19:34;;;;;;;15.82;14.07;;;8.90;99.90;;;;;;5024101;28;20458;-67
2021/10/18 04:22:00;;;;;;;17.17;14.38;;;8.90;99.90;;;;;;5017933;28;20085;-67
2021/10/18 04:24:25;;;;;;;20.67;15.43;;;8.90;99.90;;;;;;5024660;28;20112;-67
2021/10/18 04:26:51;;;;;;;19.52;14.57;;;8.90;99.90;;;;;;5010259;28;20038;-67
2021/10/18 04:29:16;;;;;;;20.48;15.10;;;8.80;99.90;;;;;;5025779;28;20048;-67
2021/10/18 04:31:42;;;;;;;86.68;69.55;;;8.80;99.90;;;;;;5017672;28;20121;-67
2021/10/18 04:34:08;;;;;;;62.38;50.00;;;8.80;99.90;;;;;;5018044;28;20386;-67
2021/10/18 04:36:34;;;;;;;41.05;33.35;;;8.80;99.90;;;;;;5024333;28;20092;-67
2021/10/18 04:38:59;;;;;;;26.98;19.40;;;8.80;99.90;;;;;;5017454;28;20424;-67
2021/10/18 04:41:25;;;;;;;21.70;15.55;;;8.80;99.90;;;;;;5017899;28;20069;-67
2021/10/18 04:43:52;;;;;;;21.15;16.25;;;8.80;99.90;;;;;;5011667;28;20042;-67
2021/10/18 04:46:17;;;;;;;19.85;15.95;;;8.80;99.90;;;;;;5017421;28;20480;-67
2021/10/18 04:48:43;;;;;;;17.23;15.30;;;8.80;99.90;;;;;;5022053;28;20586;-67
2021/10/18 04:51:09;;;;;;;20.80;16.13;;;8.80;99.90;;;;;;5022074;28;20044;-67
2021/10/18 04:53:35;;;;;;;21.05;16.92;;;8.70;99.90;;;;;;5012844;28;20069;-67
2021/10/18 04:56:00;;;;;;;20.85;17.67;;;8.80;99.90;;;;;;5018231;28;20053;-67
2021/10/18 04:58:26;;;;;;;24.27;18.60;;;8.80;99.90;;;;;;5014090;28;20075;-67
2021/10/18 05:00:56;;;;;;;28.52;19.92;;;8.80;99.90;;;;;;5022202;28;20034;-67
2021/10/18 05:03:23;;;;;;;21.95;18.85;;;8.80;99.90;;;;;;5019657;28;20037;-67
2021/10/18 05:05:48;;;;;;;26.50;19.77;;;8.80;99.90;;;;;;5014383;28;20057;-67
2021/10/18 05:08:14;;;;;;;26.10;19.35;;;8.80;99.90;;;;;;5017852;28;20095;-67
2021/10/18 05:10:42;;;;;;;22.55;18.63;;;8.80;99.90;;;;;;5024031;28;20120;-67
2021/10/18 05:13:09;;;;;;;22.70;18.75;;;8.80;99.90;;;;;;5015070;28;20029;-67
2021/10/18 05:15:35;;;;;;;24.42;18.63;;;8.80;99.90;;;;;;5016630;28;20049;-67
2021/10/18 05:18:01;;;;;;;24.42;19.05;;;8.70;99.90;;;;;;5019045;28;20034;-67
2021/10/18 05:20:31;;;;;;;24.63;18.23;;;8.70;99.90;;;;;;5015766;28;20353;-67
2021/10/18 05:22:57;;;;;;;23.75;17.88;;;8.70;99.90;;;;;;5023543;28;20040;-67
2021/10/18 05:25:23;;;;;;;21.70;18.45;;;8.60;99.90;;;;;;5018104;28;20037;-67
2021/10/18 05:27:49;;;;;;;28.63;19.08;;;8.60;99.90;;;;;;5021787;28;20579;-67
2021/10/18 05:30:19;;;;;;;25.98;19.50;;;8.60;99.90;;;;;;5023847;28;20037;-67
2021/10/18 05:32:45;;;;;;;22.98;19.25;;;8.50;99.90;;;;;;5025533;28;20033;-67
2021/10/18 05:35:10;;;;;;;22.63;18.30;;;8.50;99.90;;;;;;5020328;28;20045;-67
2021/10/18 05:37:44;;;;;;;22.02;19.20;;;8.50;99.90;;;;;;5024248;28;20041;-67
2021/10/18 05:40:11;;;;;;;27.48;20.48;;;8.40;99.90;;;;;;5015774;28;20037;-67
2021/10/18 05:42:36;;;;;;;23.38;18.45;;;8.40;99.90;;;;;;5024099;28;20117;-67
2021/10/18 05:45:03;;;;;;;22.08;19.50;;;8.30;99.90;;;;;;5022389;28;20061;-67
2021/10/18 05:47:29;;;;;;;23.92;18.50;;;8.30;99.90;;;;;;5023063;28;20037;-67
2021/10/18 05:49:54;;;;;;;23.20;19.60;;;8.30;99.90;;;;;;5020180;28;20094;-67
2021/10/18 05:52:21;;;;;;;22.00;17.30;;;8.20;99.90;;;;;;5025866;28;20045;-67
2021/10/18 05:54:47;;;;;;;22.02;19.65;;;8.10;99.90;;;;;;5020778;28;20100;-67
2021/10/18 05:57:13;;;;;;;24.27;20.40;;;8.20;99.90;;;;;;5018936;28;20077;-67
2021/10/18 05:59:39;;;;;;;26.55;20.50;;;8.10;99.90;;;;;;5018025;28;20096;-67
2021/10/18 06:02:06;;;;;;;28.00;23.17;;;8.10;99.90;;;;;;5008693;28;20442;-67
2021/10/18 06:04:34;;;;;;;25.55;22.05;;;8.10;99.90;;;;;;5022046;28;20044;-67
2021/10/18 06:07:00;;;;;;;25.88;21.45;;;8.10;99.90;;;;;;5009606;28;20087;-67
2021/10/18 06:09:26;;;;;;;27.42;21.30;;;8.10;99.90;;;;;;5024033;28;20109;-67
2021/10/18 06:11:52;;;;;;;28.52;23.40;;;8.10;99.90;;;;;;5009906;28;20034;-67
2021/10/18 06:14:18;;;;;;;30.52;23.50;;;8.10;99.90;;;;;;5015912;28;20635;-67
2021/10/18 06:16:43;;;;;;;29.73;22.85;;;8.30;99.90;;;;;;5017792;28;20101;-67
2021/10/18 06:19:09;;;;;;;27.52;23.55;;;8.30;99.90;;;;;;5023907;28;20538;-67
2021/10/18 06:21:35;;;;;;;27.33;23.48;;;8.40;99.90;;;;;;5012649;28;20136;-67
2021/10/18 06:24:00;;;;;;;33.13;23.63;;;8.40;99.90;;;;;;5025214;28;20037;-67
2021/10/18 06:26:26;;;;;;;24.95;22.15;;;8.50;99.90;;;;;;5014688;28;20111;-67
2021/10/18 06:28:52;;;;;;;25.92;22.20;;;8.50;99.90;;;;;;5014609;28;20045;-67
2021/10/18 06:31:17;;;;;;;27.70;22.63;;;8.60;99.90;;;;;;5013988;28;20481;-67
2021/10/18 06:33:43;;;;;;;26.50;22.52;;;8.60;99.90;;;;;;5024097;28;20041;-67
2021/10/18 06:36:09;;;;;;;29.67;23.05;;;8.60;99.90;;;;;;5021296;28;20419;-67
2021/10/18 06:38:34;;;;;;;28.80;22.33;;;8.70;99.90;;;;;;5019056;28;20038;-67
2021/10/18 06:41:00;;;;;;;28.45;21.83;;;8.70;99.90;;;;;;5020412;28;20045;-67
2021/10/18 06:43:26;;;;;;;27.08;23.55;;;8.80;99.90;;;;;;5016958;28;20053;-67
2021/10/18 06:45:52;;;;;;;28.15;24.17;;;8.80;99.90;;;;;;5018827;28;20045;-67
2021/10/18 06:48:17;;;;;;;27.73;23.67;;;8.80;99.90;;;;;;4996998;28;20053;-67
2021/10/18 06:50:45;;;;;;;28.95;22.52;;;8.80;99.90;;;;;;5002565;28;20033;-67
2021/10/18 06:53:15;;;;;;;27.48;22.10;;;8.90;99.90;;;;;;5015689;28;20629;-67
2021/10/18 06:55:41;;;;;;;28.42;22.63;;;9.00;99.90;;;;;;5022596;28;20120;-67
2021/10/18 06:58:08;;;;;;;25.23;21.75;;;9.00;99.90;;;;;;5016989;28;20041;-67
2021/10/18 07:00:34;;;;;;;25.85;22.58;;;9.10;99.90;;;;;;5020884;28;20505;-68
2021/10/18 07:02:59;;;;;;;27.27;21.83;;;9.20;99.90;;;;;;5011645;28;20045;-68
2021/10/18 07:05:25;;;;;;;29.98;21.35;;;9.20;99.90;;;;;;5022964;28;20043;-68
2021/10/18 07:07:51;;;;;;;24.77;21.83;;;9.40;99.90;;;;;;5007670;28;20089;-68
2021/10/18 07:10:17;;;;;;;24.60;21.92;;;9.50;99.90;;;;;;5015270;28;20045;-68
2021/10/18 07:12:42;;;;;;;24.63;20.67;;;9.70;99.90;;;;;;5022638;28;20069;-68
2021/10/18 07:15:09;;;;;;;22.85;20.48;;;9.80;99.90;;;;;;5017425;28;20046;-68
2021/10/18 07:17:35;;;;;;;25.75;21.92;;;9.90;99.90;;;;;;5015979;28;20037;-67
2021/10/18 07:20:02;;;;;;;24.27;20.30;;;10.00;99.90;;;;;;5014380;28;20064;-69
2021/10/18 07:22:31;;;;;;;23.17;20.73;;;10.10;99.90;;;;;;5025483;28;20128;-67
2021/10/18 07:24:58;;;;;;;21.85;19.55;;;10.20;99.90;;;;;;5020344;28;20202;-67
2021/10/18 07:27:25;;;;;;;23.85;19.33;;;10.30;99.90;;;;;;5020704;28;20042;-67
2021/10/18 07:29:51;;;;;;;24.67;21.17;;;10.40;99.90;;;;;;5026139;28;20470;-67
2021/10/18 07:32:17;;;;;;;23.20;20.70;;;10.50;99.90;;;;;;5025848;28;20038;-67
2021/10/18 07:34:43;;;;;;;26.73;21.38;;;10.60;99.90;;;;;;5016719;28;20486;-67
2021/10/18 07:37:09;;;;;;;23.70;20.88;;;10.70;99.90;;;;;;5022619;28;20029;-67
2021/10/18 07:39:35;;;;;;;25.70;20.25;;;10.80;99.90;;;;;;5019738;28;20144;-67
2021/10/18 07:42:02;;;;;;;24.20;20.67;;;10.90;99.90;;;;;;5024937;28;20038;-67
2021/10/18 07:44:28;;;;;;;23.05;19.73;;;11.00;99.90;;;;;;5015043;28;20057;-67
2021/10/18 07:46:58;;;;;;;23.88;20.45;;;11.00;99.90;;;;;;5024120;28;20048;-67
2021/10/18 07:49:25;;;;;;;22.77;19.55;;;11.10;99.90;;;;;;5015512;28;20394;-67
2021/10/18 07:51:50;;;;;;;25.58;19.00;;;11.10;99.90;;;;;;5021397;28;20393;-67
2021/10/18 07:54:17;;;;;;;21.10;18.90;;;11.20;99.90;;;;;;5019385;28;20033;-67
2021/10/18 07:56:43;;;;;;;22.75;18.02;;;11.30;99.90;;;;;;5018258;28;20057;-67
2021/10/18 07:59:08;;;;;;;22.02;19.63;;;11.30;99.90;;;;;;5024217;28;20042;-67
2021/10/18 08:01:34;;;;;;;22.65;18.90;;;11.40;99.90;;;;;;5019478;28;20045;-67
2021/10/18 08:04:00;;;;;;;22.50;19.08;;;11.40;99.90;;;;;;5022016;28;20124;-67
2021/10/18 08:06:26;;;;;;;22.45;19.73;;;11.50;99.90;;;;;;5017741;28;20060;-67
2021/10/18 08:08:53;;;;;;;21.50;19.00;;;11.50;99.90;;;;;;5019886;28;20049;-67
2021/10/18 08:11:19;;;;;;;21.15;18.95;;;11.50;99.90;;;;;;5017842;28;20065;-67
2021/10/18 08:13:45;;;;;;;21.48;19.17;;;11.60;99.90;;;;;;5023177;28;20485;-67
2021/10/18 08:16:11;;;;;;;25.20;19.67;;;11.60;99.90;;;;;;5020553;28;20143;-68
2021/10/18 08:18:38;;;;;;;22.10;19.40;;;11.60;99.90;;;;;;5018568;28;20034;-68
2021/10/18 08:21:08;;;;;;;24.40;19.98;;;11.60;99.90;;;;;;5018335;28;20112;-68
2021/10/18 08:23:34;;;;;;;21.23;18.90;;;11.70;99.90;;;;;;5022822;28;20052;-68
2021/10/18 08:26:01;;;;;;;23.70;20.63;;;11.70;99.90;;;;;;5018974;28;20137;-68
2021/10/18 08:28:27;;;;;;;22.67;20.13;;;11.70;99.90;;;;;;5020585;28;20057;-68
2021/10/18 08:30:54;;;;;;;23.85;20.75;;;11.70;99.90;;;;;;5015415;28;20555;-69
2021/10/18 08:33:20;;;;;;;23.90;21.10;;;11.80;99.90;;;;;;5016595;28;20527;-69
2021/10/18 08:35:45;;;;;;;21.50;18.98;;;11.80;99.90;;;;;;5017332;28;20052;-68
2021/10/18 08:38:46;;;;;;;24.55;21.05;;;11.80;99.90;;;;;;5017729;28;20052;-68
2021/10/18 08:41:10;;;;;;;20.77;18.58;;;11.80;99.90;;;;;;5020088;28;20498;-68
2021/10/18 08:46:01;;;;;;;22.77;19.40;;;11.90;99.90;;;;;;5016705;28;20053;-69
2021/10/18 08:48:28;;;;;;;22.17;19.77;;;12.00;99.90;;;;;;5019877;28;20056;-69
2021/10/18 08:50:54;;;;;;;26.30;20.40;;;12.00;99.90;;;;;;5021507;28;20044;-68
2021/10/18 08:53:20;;;;;;;23.25;18.95;;;12.10;99.90;;;;;;5018216;28;20038;-68
2021/10/18 08:55:46;;;;;;;22.92;19.58;;;12.20;99.90;;;;;;5024490;28;20057;-68
2021/10/18 08:58:12;;;;;;;22.90;18.98;;;12.40;99.90;;;;;;5014504;28;20037;-68
2021/10/18 09:00:46;;;;;;;22.75;20.38;;;12.50;99.90;;;;;;5022194;28;20041;-68
2021/10/18 09:03:23;;;;;;;21.35;19.15;;;12.60;99.90;;;;;;5010508;28;20033;-68
2021/10/18 09:05:49;;;;;;;22.83;19.85;;;12.70;99.90;;;;;;5018735;28;20033;-68
2021/10/18 09:08:55;;;;;;;25.23;19.92;;;12.80;99.90;;;;;;5011355;28;20045;-68
2021/10/18 09:11:28;;;;;;;22.35;18.92;;;12.90;99.90;;;;;;5018902;28;20486;-68
2021/10/18 09:13:54;;;;;;;22.23;19.38;;;13.00;99.90;;;;;;5017504;28;20050;-68
2021/10/18 09:16:33;;;;;;;21.20;19.02;;;13.20;99.90;;;;;;5015018;28;20042;-68
2021/10/18 09:18:58;;;;;;;21.70;19.55;;;13.30;99.90;;;;;;5018036;28;20053;-68
2021/10/18 09:21:48;;;;;;;20.45;18.33;;;13.40;99.90;;;;;;5035038;28;20425;-68
2021/10/18 09:24:30;;;;;;;21.08;18.85;;;13.60;99.90;;;;;;5016081;28;20049;-68
2021/10/18 09:26:57;;;;;;;21.55;19.25;;;13.70;99.90;;;;;;5019471;28;20120;-68
2021/10/18 09:29:35;;;;;;;21.77;19.17;;;13.90;99.90;;;;;;5015723;28;20447;-68
2021/10/18 09:32:03;;;;;;;23.38;19.05;;;14.10;99.90;;;;;;5022502;28;20038;-68
2021/10/18 09:34:34;;;;;;;23.20;19.83;;;14.30;99.90;;;;;;5016937;28;20239;-68
2021/10/18 09:37:07;;;;;;;28.35;24.23;;;14.50;99.90;;;;;;5003810;28;20053;-68
2021/10/18 09:39:37;;;;;;;24.35;18.85;;;14.60;99.70;;;;;;5015163;28;20467;-68
2021/10/18 09:42:11;;;;;;;20.67;18.05;;;14.70;98.80;;;;;;5021867;28;20087;-68
2021/10/18 10:51:05;;;;;;;19.70;17.60;;;15.90;94.30;;;;;;5018756;28;20061;-68
2021/10/18 10:53:48;;;;;;;21.77;18.75;;;15.90;94.10;;;;;;5022899;28;20065;-68
2021/10/18 10:56:28;;;;;;;19.13;16.50;;;16.20;93.50;;;;;;5017759;28;20054;-68
2021/10/18 10:59:23;;;;;;;18.48;16.58;;;16.50;92.70;;;;;;5018283;28;20592;-68
2021/10/18 11:01:54;;;;;;;21.73;17.48;;;16.80;92.90;;;;;;5018324;28;20140;-68
2021/10/18 11:04:29;;;;;;;19.20;17.05;;;16.60;91.90;;;;;;5020995;28;20126;-68
2021/10/18 11:06:56;;;;;;;19.55;17.30;;;16.60;92.20;;;;;;5017544;28;20132;-68
2021/10/18 11:09:45;;;;;;;17.73;15.10;;;16.80;92.40;;;;;;5022211;28;20060;-68
2021/10/18 11:12:17;;;;;;;16.95;15.02;;;17.30;91.40;;;;;;5019289;28;20076;-68
2021/10/18 11:14:57;;;;;;;18.48;16.02;;;17.90;89.80;;;;;;5026849;28;20125;-68
2021/10/18 11:17:24;;;;;;;18.20;16.30;;;18.20;87.10;;;;;;5010960;28;20490;-68
2021/10/18 11:19:59;;;;;;;17.70;15.82;;;18.40;86.20;;;;;;5027310;28;20105;-68
2021/10/18 11:22:26;;;;;;;17.35;15.55;;;18.20;85.80;;;;;;5018882;28;20042;-68
2021/10/18 11:24:51;;;;;;;17.75;15.85;;;18.20;85.70;;;;;;5015739;28;20037;-68
2021/10/18 11:27:30;;;;;;;17.45;15.27;;;18.30;87.10;;;;;;5014953;28;20076;-68
2021/10/18 11:29:58;;;;;;;15.88;13.77;;;18.50;84.20;;;;;;5021174;28;20077;-68
2021/10/18 11:32:24;;;;;;;16.98;13.43;;;18.40;83.40;;;;;;5021757;28;20037;-68
2021/10/18 11:35:03;;;;;;;15.55;13.85;;;18.10;82.20;;;;;;5017093;28;20037;-68
2021/10/18 11:37:49;;;;;;;14.35;12.95;;;18.10;82.50;;;;;;5016647;28;20049;-68
2021/10/18 11:40:16;;;;;;;13.85;12.45;;;18.20;81.90;;;;;;5021708;28;20473;-68
2021/10/18 11:42:50;;;;;;;13.52;12.18;;;18.30;80.50;;;;;;5019584;28;20064;-68
2021/10/18 11:45:17;;;;;;;;;;;18.00;79.40;;;;;;5017100;28;20128;-68
2021/10/18 11:47:43;;;;;;;14.00;12.63;;;17.70;78.60;;;;;;5016533;28;20273;-68
2021/10/18 11:50:08;;;;;;;15.82;12.75;;;17.40;82.10;;;;;;5021789;28;20103;-68
2021/10/18 11:52:43;;;;;;;13.65;12.32;;;17.50;82.60;;;;;;5022261;28;20067;-68
2021/10/18 11:55:10;;;;;;;;;;;17.40;82.30;;;;;;5016292;28;20079;-68
2021/10/18 11:57:41;;;;;;;17.60;13.65;;;17.40;82.90;;;;;;5013358;28;20335;-68
2021/10/18 12:00:10;;;;;;;17.20;13.63;;;17.40;83.50;;;;;;5013023;28;20096;-68
2021/10/18 12:02:41;;;;;;;16.35;14.50;;;17.30;82.60;;;;;;5022460;28;20140;-67
2021/10/18 12:05:07;;;;;;;14.50;12.50;;;17.10;83.00;;;;;;5014841;28;20520;-67
2021/10/18 12:07:42;;;;;;;16.48;14.10;;;16.80;83.50;;;;;;5014525;28;20595;-67
2021/10/18 12:10:28;;;;;;;17.92;13.55;;;16.60;84.20;;;;;;5011531;28;20489;-67
2021/10/18 12:13:04;;;;;;;17.50;13.27;;;16.40;85.60;;;;;;5016029;28;20050;-67
2021/10/18 12:15:32;;;;;;;18.83;14.68;;;16.30;85.10;;;;;;5015684;28;20041;-67
2021/10/18 12:17:59;;;;;;;18.20;13.77;;;16.20;85.00;;;;;;5016056;28;20111;-67
2021/10/18 12:20:25;;;;;;;16.45;12.68;;;16.00;85.40;;;;;;5011940;28;20050;-67
2021/10/18 12:23:05;;;;;;;14.23;12.73;;;16.00;86.00;;;;;;5023395;28;20041;-67
2021/10/18 12:25:35;;;;;;;15.93;13.68;;;16.00;86.30;;;;;;5020122;28;20179;-67
2021/10/18 12:28:25;;;;;;;17.52;13.43;;;15.90;85.90;;;;;;5012955;28;20338;-68
2021/10/18 12:30:51;;;;;;;14.93;12.73;;;15.90;86.30;;;;;;5013275;28;20121;-68
2021/10/18 12:33:17;;;;;;;13.18;11.73;;;15.90;86.00;;;;;;5020723;28;20554;-68
2021/10/18 12:35:56;;;;;;;14.70;12.05;;;15.90;86.70;;;;;;5013375;28;20054;-68
2021/10/18 12:38:26;;;;;;;14.15;12.55;;;16.00;86.70;;;;;;5018268;28;20095;-67
2021/10/18 12:40:52;;;;;;;14.90;12.43;;;16.00;87.20;;;;;;5009650;28;20367;-68
2021/10/18 12:43:27;;;;;;;15.10;12.98;;;16.00;87.80;;;;;;5022509;28;20110;-71
2021/10/18 12:45:53;;;;;;;13.93;11.95;;;16.00;87.80;;;;;;5019432;28;20041;-68
2021/10/18 12:48:24;;;;;;;13.65;12.15;;;16.00;87.40;;;;;;5026514;28;20030;-68
2021/10/18 12:50:50;;;;;;;16.08;12.18;;;16.00;87.40;;;;;;5015397;28;20045;-68
2021/10/18 12:53:30;;;;;;;14.38;12.88;;;16.00;87.50;;;;;;5021879;28;20116;-68
2021/10/18 12:55:58;;;;;;;14.30;12.45;;;15.90;87.60;;;;;;5024961;28;20049;-68
2021/10/18 12:58:23;;;;;;;15.60;12.77;;;15.90;88.30;;;;;;5015998;28;20042;-68
2021/10/18 13:00:49;;;;;;;16.60;11.95;;;15.90;89.20;;;;;;5020754;28;20128;-68
2021/10/18 13:03:26;;;;;;;14.23;12.27;;;15.90;89.40;;;;;;5012221;28;20112;-68
2021/10/18 13:05:55;;;;;;;15.43;12.27;;;15.80;89.40;;;;;;5015218;28;20034;-68
2021/10/18 13:08:24;;;;;;;12.98;11.60;;;15.80;89.40;;;;;;5016090;28;20030;-68
2021/10/18 13:10:51;;;;;;;13.63;11.90;;;15.80;88.90;;;;;;5016974;28;20048;-68
2021/10/18 13:13:19;;;;;;;13.52;11.30;;;15.70;88.50;;;;;;4999581;28;20046;-68
2021/10/18 13:15:47;;;;;;;13.38;11.35;;;15.70;89.00;;;;;;5017698;28;20045;-68
2021/10/18 13:18:14;;;;;;;14.60;12.05;;;15.60;89.60;;;;;;5010642;28;20112;-68
2021/10/18 13:20:43;;;;;;;13.10;11.23;;;15.60;90.00;;;;;;5017842;28;20033;-68
2021/10/18 13:23:09;;;;;;;15.52;11.20;;;15.60;89.70;;;;;;5018956;28;20072;-68
2021/10/18 13:25:37;;;;;;;13.68;10.95;;;15.60;90.20;;;;;;5024578;28;20061;-68
2021/10/18 13:28:04;;;;;;;14.05;11.27;;;15.60;90.00;;;;;;5012693;28;20064;-68
2021/10/18 13:30:31;;;;;;;12.52;11.02;;;15.60;90.40;;;;;;5023105;28;20044;-68
2021/10/18 13:32:58;;;;;;;15.25;12.02;;;15.60;90.20;;;;;;5017910;28;20088;-68
2021/10/18 13:35:25;;;;;;;16.00;11.20;;;15.50;89.90;;;;;;5016968;28;20090;-68
2021/10/18 13:37:52;;;;;;;16.75;11.32;;;15.50;90.20;;;;;;5013718;28;20037;-68
2021/10/18 13:40:20;;;;;;;16.92;11.43;;;15.50;90.00;;;;;;5018849;28;20103;-68
2021/10/18 13:42:47;;;;;;;18.00;13.15;;;15.40;89.90;;;;;;5016865;28;20107;-68
2021/10/18 13:45:19;;;;;;;13.60;11.80;;;15.40;89.50;;;;;;5019081;28;20037;-68